sensor_id;sensor_type;location;lat;lon;timestamp;pressure;altitude;pressure_sealevel;temperature;humidity
19259;BME280;9763;48.780;9.212;2023-02-19T00:00:16;98921.78;;;14.53;56.28
19259;BME280;9763;48.780;9.212;2023-02-19T00:03:41;98922.63;;;14.54;56.37
19259;BME280;9763;48.780;9.212;2023-02-19T00:07:06;98917.38;;;14.54;56.00
19259;BME280;9763;48.780;9.212;2023-02-19T00:10:30;98911.19;;;14.55;55.83
19259;BME280;9763;48.780;9.212;2023-02-19T00:13:56;98910.34;;;14.54;56.04
19259;BME280;9763;48.780;9.212;2023-02-19T00:17:20;98903.63;;;14.50;55.95
19259;BME280;9763;48.780;9.212;2023-02-19T00:20:44;98912.81;;;14.45;56.25
19259;BME280;9763;48.780;9.212;2023-02-19T00:24:11;98908.50;;;14.44;56.32
19259;BME280;9763;48.780;9.212;2023-02-19T00:27:35;98903.53;;;14.39;56.63
19259;BME280;9763;48.780;9.212;2023-02-19T00:31:05;98908.06;;;14.37;56.66
19259;BME280;9763;48.780;9.212;2023-02-19T00:34:29;98906.50;;;14.34;56.36
19259;BME280;9763;48.780;9.212;2023-02-19T00:37:53;98905.88;;;14.31;56.68
19259;BME280;9763;48.780;9.212;2023-02-19T00:41:20;98905.16;;;14.29;56.96
19259;BME280;9763;48.780;9.212;2023-02-19T00:44:44;98910.50;;;14.27;56.67
19259;BME280;9763;48.780;9.212;2023-02-19T00:48:08;98906.34;;;14.25;56.71
19259;BME280;9763;48.780;9.212;2023-02-19T00:51:35;98905.72;;;14.21;57.30
19259;BME280;9763;48.780;9.212;2023-02-19T00:54:59;98900.78;;;14.17;57.31
19259;BME280;9763;48.780;9.212;2023-02-19T00:58:24;98907.72;;;14.18;56.96
19259;BME280;9763;48.780;9.212;2023-02-19T01:01:48;98903.09;;;14.21;56.96
19259;BME280;9763;48.780;9.212;2023-02-19T01:05:13;98890.44;;;14.26;57.03
19259;BME280;9763;48.780;9.212;2023-02-19T01:08:38;98879.63;;;14.31;57.22
19259;BME280;9763;48.780;9.212;2023-02-19T01:12:03;98878.69;;;14.32;57.22
19259;BME280;9763;48.780;9.212;2023-02-19T01:15:28;98873.53;;;14.30;57.76
19259;BME280;9763;48.780;9.212;2023-02-19T01:18:53;98865.66;;;14.30;57.42
19259;BME280;9763;48.780;9.212;2023-02-19T01:22:17;98861.34;;;14.29;57.68
19259;BME280;9763;48.780;9.212;2023-02-19T01:25:41;98864.72;;;14.31;57.30
19259;BME280;9763;48.780;9.212;2023-02-19T01:29:06;98868.91;;;14.34;57.71
19259;BME280;9763;48.780;9.212;2023-02-19T01:32:30;98861.75;;;14.36;57.78
19259;BME280;9763;48.780;9.212;2023-02-19T01:35:55;98855.53;;;14.37;57.39
19259;BME280;9763;48.780;9.212;2023-02-19T01:39:19;98849.25;;;14.39;57.54
19259;BME280;9763;48.780;9.212;2023-02-19T01:42:43;98847.53;;;14.38;57.90
19259;BME280;9763;48.780;9.212;2023-02-19T01:46:07;98844.91;;;14.38;57.42
19259;BME280;9763;48.780;9.212;2023-02-19T01:49:36;98850.28;;;14.37;57.79
19259;BME280;9763;48.780;9.212;2023-02-19T01:53:05;98853.75;;;14.37;57.85
19259;BME280;9763;48.780;9.212;2023-02-19T01:56:31;98847.47;;;14.40;57.64
19259;BME280;9763;48.780;9.212;2023-02-19T02:00:05;98828.16;;;14.28;57.84
19259;BME280;9763;48.780;9.212;2023-02-19T02:03:38;98844.72;;;14.41;57.78
19259;BME280;9763;48.780;9.212;2023-02-19T02:07:05;98831.09;;;14.36;57.65
19259;BME280;9763;48.780;9.212;2023-02-19T02:10:52;98835.91;;;14.43;57.32
19259;BME280;9763;48.780;9.212;2023-02-19T02:14:17;98838.75;;;14.39;57.91
19259;BME280;9763;48.780;9.212;2023-02-19T02:17:48;98851.00;;;14.39;57.51
19259;BME280;9763;48.780;9.212;2023-02-19T02:21:40;98844.06;;;14.38;57.34
19259;BME280;9763;48.780;9.212;2023-02-19T02:29:48;98825.66;;;14.27;58.19
19259;BME280;9763;48.780;9.212;2023-02-19T02:33:27;98816.41;;;14.10;58.39
19259;BME280;9763;48.780;9.212;2023-02-19T02:36:57;98823.59;;;13.95;59.01
19259;BME280;9763;48.780;9.212;2023-02-19T02:40:22;98820.56;;;13.89;58.82
19259;BME280;9763;48.780;9.212;2023-02-19T02:43:46;98815.53;;;13.86;59.26
19259;BME280;9763;48.780;9.212;2023-02-19T02:47:12;98806.84;;;13.85;58.60
19259;BME280;9763;48.780;9.212;2023-02-19T02:50:55;98807.56;;;13.87;58.87
19259;BME280;9763;48.780;9.212;2023-02-19T02:54:26;98813.41;;;13.91;58.47
19259;BME280;9763;48.780;9.212;2023-02-19T02:58:13;98814.03;;;13.94;58.38
19259;BME280;9763;48.780;9.212;2023-02-19T03:01:42;98813.94;;;13.96;58.53
19259;BME280;9763;48.780;9.212;2023-02-19T03:05:27;98807.84;;;13.95;58.30
19259;BME280;9763;48.780;9.212;2023-02-19T03:09:14;98815.50;;;13.98;58.20
19259;BME280;9763;48.780;9.212;2023-02-19T03:12:43;98808.47;;;13.99;58.83
19259;BME280;9763;48.780;9.212;2023-02-19T03:16:28;98806.50;;;13.90;58.84
19259;BME280;9763;48.780;9.212;2023-02-19T03:20:14;98805.16;;;13.84;58.75
19259;BME280;9763;48.780;9.212;2023-02-19T03:23:40;98814.28;;;13.79;58.68
19259;BME280;9763;48.780;9.212;2023-02-19T03:27:24;98810.88;;;13.65;59.10
19259;BME280;9763;48.780;9.212;2023-02-19T03:30:52;98794.88;;;13.45;59.50
19259;BME280;9763;48.780;9.212;2023-02-19T03:34:23;98818.16;;;13.49;59.85
19259;BME280;9763;48.780;9.212;2023-02-19T03:37:55;98813.34;;;13.43;59.22
19259;BME280;9763;48.780;9.212;2023-02-19T03:41:27;98804.13;;;13.38;59.39
19259;BME280;9763;48.780;9.212;2023-02-19T03:45:13;98808.63;;;13.36;59.95
19259;BME280;9763;48.780;9.212;2023-02-19T03:48:47;98817.53;;;13.33;59.74
19259;BME280;9763;48.780;9.212;2023-02-19T03:52:17;98811.56;;;13.31;59.58
19259;BME280;9763;48.780;9.212;2023-02-19T03:55:52;98796.69;;;13.19;59.99
19259;BME280;9763;48.780;9.212;2023-02-19T03:59:27;98807.91;;;13.21;59.51
19259;BME280;9763;48.780;9.212;2023-02-19T04:03:01;98829.59;;;13.36;60.00
19259;BME280;9763;48.780;9.212;2023-02-19T04:06:31;98831.28;;;13.37;59.38
19259;BME280;9763;48.780;9.212;2023-02-19T04:09:56;98831.19;;;13.38;59.23
19259;BME280;9763;48.780;9.212;2023-02-19T04:13:25;98836.09;;;13.43;59.42
19259;BME280;9763;48.780;9.212;2023-02-19T04:16:58;98840.19;;;13.47;59.24
19259;BME280;9763;48.780;9.212;2023-02-19T04:20:26;98841.66;;;13.51;59.69
19259;BME280;9763;48.780;9.212;2023-02-19T04:23:52;98847.50;;;13.54;59.12
19259;BME280;9763;48.780;9.212;2023-02-19T04:27:16;98811.16;;;13.37;59.54
19259;BME280;9763;48.780;9.212;2023-02-19T04:30:41;98837.97;;;13.53;59.80
19259;BME280;9763;48.780;9.212;2023-02-19T04:34:07;98844.88;;;13.54;59.26
19259;BME280;9763;48.780;9.212;2023-02-19T04:37:31;98858.00;;;13.54;59.46
19259;BME280;9763;48.780;9.212;2023-02-19T04:40:55;98862.53;;;13.52;59.72
19259;BME280;9763;48.780;9.212;2023-02-19T04:44:19;98857.50;;;13.49;60.16
19259;BME280;9763;48.780;9.212;2023-02-19T04:47:43;98867.25;;;13.47;59.96
19259;BME280;9763;48.780;9.212;2023-02-19T04:51:09;98874.28;;;13.47;59.46
19259;BME280;9763;48.780;9.212;2023-02-19T04:54:34;98883.91;;;13.46;59.82
19259;BME280;9763;48.780;9.212;2023-02-19T04:57:58;98882.25;;;13.45;59.80
19259;BME280;9763;48.780;9.212;2023-02-19T05:01:23;98895.34;;;13.45;59.60
19259;BME280;9763;48.780;9.212;2023-02-19T05:04:47;98897.03;;;13.46;59.90
19259;BME280;9763;48.780;9.212;2023-02-19T05:08:12;98900.41;;;13.48;59.71
19259;BME280;9763;48.780;9.212;2023-02-19T05:11:36;98893.28;;;13.50;59.50
19259;BME280;9763;48.780;9.212;2023-02-19T05:15:00;98894.81;;;13.53;59.45
19259;BME280;9763;48.780;9.212;2023-02-19T05:18:24;98898.41;;;13.52;59.51
19259;BME280;9763;48.780;9.212;2023-02-19T05:21:48;98910.44;;;13.54;59.93
19259;BME280;9763;48.780;9.212;2023-02-19T05:25:13;98905.31;;;13.53;60.00
19259;BME280;9763;48.780;9.212;2023-02-19T05:28:37;98902.81;;;13.51;59.62
19259;BME280;9763;48.780;9.212;2023-02-19T05:32:01;98890.84;;;13.47;59.90
19259;BME280;9763;48.780;9.212;2023-02-19T05:35:24;98897.03;;;13.46;60.09
19259;BME280;9763;48.780;9.212;2023-02-19T05:38:52;98905.00;;;13.45;59.96
19259;BME280;9763;48.780;9.212;2023-02-19T05:42:17;98920.09;;;13.41;60.27
19259;BME280;9763;48.780;9.212;2023-02-19T05:45:41;98914.25;;;13.38;59.98
19259;BME280;9763;48.780;9.212;2023-02-19T05:49:05;98916.88;;;13.38;60.00
19259;BME280;9763;48.780;9.212;2023-02-19T05:52:29;98916.13;;;13.36;60.16
19259;BME280;9763;48.780;9.212;2023-02-19T05:55:52;98917.28;;;13.31;60.46
19259;BME280;9763;48.780;9.212;2023-02-19T05:59:20;98916.66;;;13.28;60.51
19259;BME280;9763;48.780;9.212;2023-02-19T06:02:44;98927.25;;;13.26;60.82
19259;BME280;9763;48.780;9.212;2023-02-19T06:06:09;98928.28;;;13.24;60.44
19259;BME280;9763;48.780;9.212;2023-02-19T06:09:35;98926.69;;;13.21;60.71
19259;BME280;9763;48.780;9.212;2023-02-19T06:12:58;98932.97;;;13.19;61.17
19259;BME280;9763;48.780;9.212;2023-02-19T06:16:24;98928.97;;;13.13;60.47
19259;BME280;9763;48.780;9.212;2023-02-19T06:19:48;98943.13;;;13.11;61.16
19259;BME280;9763;48.780;9.212;2023-02-19T06:23:11;98955.47;;;13.09;60.79
19259;BME280;9763;48.780;9.212;2023-02-19T06:26:36;98961.75;;;13.06;60.84
19259;BME280;9763;48.780;9.212;2023-02-19T06:30:00;98955.91;;;13.03;61.24
19259;BME280;9763;48.780;9.212;2023-02-19T06:33:26;98956.28;;;12.96;60.63
19259;BME280;9763;48.780;9.212;2023-02-19T06:36:50;98953.69;;;12.96;60.45
19259;BME280;9763;48.780;9.212;2023-02-19T06:40:14;98960.69;;;12.96;61.19
19259;BME280;9763;48.780;9.212;2023-02-19T06:43:38;98965.09;;;12.95;60.71
19259;BME280;9763;48.780;9.212;2023-02-19T06:47:01;98972.84;;;12.97;60.99
19259;BME280;9763;48.780;9.212;2023-02-19T06:50:26;98973.78;;;12.96;60.92
19259;BME280;9763;48.780;9.212;2023-02-19T06:53:50;98982.41;;;12.98;60.41
19259;BME280;9763;48.780;9.212;2023-02-19T06:57:14;98991.00;;;13.00;60.48
19259;BME280;9763;48.780;9.212;2023-02-19T07:00:38;98996.06;;;13.03;60.26
19259;BME280;9763;48.780;9.212;2023-02-19T07:04:03;99010.81;;;13.04;60.20
19259;BME280;9763;48.780;9.212;2023-02-19T07:07:28;99002.00;;;13.05;60.50
19259;BME280;9763;48.780;9.212;2023-02-19T07:10:56;99010.50;;;13.09;60.18
19259;BME280;9763;48.780;9.212;2023-02-19T07:14:21;99006.97;;;13.10;60.20
19259;BME280;9763;48.780;9.212;2023-02-19T07:17:44;99016.50;;;13.11;60.31
19259;BME280;9763;48.780;9.212;2023-02-19T07:21:10;99012.09;;;13.11;60.21
19259;BME280;9763;48.780;9.212;2023-02-19T07:24:36;99013.78;;;13.12;60.16
19259;BME280;9763;48.780;9.212;2023-02-19T07:28:01;99007.69;;;13.12;59.81
19259;BME280;9763;48.780;9.212;2023-02-19T07:31:25;99016.50;;;13.11;60.22
19259;BME280;9763;48.780;9.212;2023-02-19T07:34:49;99017.44;;;13.10;60.11
19259;BME280;9763;48.780;9.212;2023-02-19T07:38:15;99020.81;;;13.12;59.86
19259;BME280;9763;48.780;9.212;2023-02-19T07:41:41;99018.88;;;13.15;59.87
19259;BME280;9763;48.780;9.212;2023-02-19T07:45:11;99010.78;;;13.18;59.55
19259;BME280;9763;48.780;9.212;2023-02-19T07:48:36;99019.28;;;13.22;60.01
19259;BME280;9763;48.780;9.212;2023-02-19T07:52:00;99028.53;;;13.27;59.45
19259;BME280;9763;48.780;9.212;2023-02-19T07:55:24;99026.63;;;13.29;59.13
19259;BME280;9763;48.780;9.212;2023-02-19T07:58:49;99033.47;;;13.32;58.96
19259;BME280;9763;48.780;9.212;2023-02-19T08:02:16;99038.41;;;13.37;58.90
19259;BME280;9763;48.780;9.212;2023-02-19T08:05:58;99031.28;;;13.39;58.81
19259;BME280;9763;48.780;9.212;2023-02-19T08:09:22;99025.81;;;13.42;58.83
19259;BME280;9763;48.780;9.212;2023-02-19T08:12:53;99028.06;;;13.48;58.56
19259;BME280;9763;48.780;9.212;2023-02-19T08:16:36;99026.91;;;13.52;58.45
19259;BME280;9763;48.780;9.212;2023-02-19T08:20:05;99038.00;;;13.55;58.43
19259;BME280;9763;48.780;9.212;2023-02-19T08:23:29;99042.63;;;13.64;58.74
19259;BME280;9763;48.780;9.212;2023-02-19T08:26:53;99027.75;;;13.65;58.04
19259;BME280;9763;48.780;9.212;2023-02-19T08:30:17;99056.50;;;13.79;58.39
19259;BME280;9763;48.780;9.212;2023-02-19T08:33:42;99075.09;;;13.89;57.75
19259;BME280;9763;48.780;9.212;2023-02-19T08:37:06;99069.44;;;13.95;57.48
19259;BME280;9763;48.780;9.212;2023-02-19T08:40:31;99078.78;;;13.99;57.36
19259;BME280;9763;48.780;9.212;2023-02-19T08:43:55;99084.03;;;13.99;58.08
19259;BME280;9763;48.780;9.212;2023-02-19T08:47:18;99077.00;;;13.99;57.30
19259;BME280;9763;48.780;9.212;2023-02-19T08:50:44;99080.47;;;14.00;57.68
19259;BME280;9763;48.780;9.212;2023-02-19T08:54:07;99086.66;;;13.99;57.72
19259;BME280;9763;48.780;9.212;2023-02-19T08:57:33;99092.13;;;13.96;57.36
19259;BME280;9763;48.780;9.212;2023-02-19T09:00:59;99099.34;;;13.92;57.07
19259;BME280;9763;48.780;9.212;2023-02-19T09:04:23;99105.88;;;13.87;57.64
19259;BME280;9763;48.780;9.212;2023-02-19T09:07:48;99112.44;;;13.80;57.21
19259;BME280;9763;48.780;9.212;2023-02-19T09:11:11;99121.59;;;13.74;57.29
19259;BME280;9763;48.780;9.212;2023-02-19T09:14:36;99121.88;;;13.69;58.01
19259;BME280;9763;48.780;9.212;2023-02-19T09:18:00;99123.84;;;13.66;57.29
19259;BME280;9763;48.780;9.212;2023-02-19T09:21:24;99123.84;;;13.66;57.84
19259;BME280;9763;48.780;9.212;2023-02-19T09:24:49;99126.09;;;13.72;57.44
19259;BME280;9763;48.780;9.212;2023-02-19T09:28:13;99128.28;;;13.78;57.85
19259;BME280;9763;48.780;9.212;2023-02-19T09:31:38;99122.94;;;13.80;57.22
19259;BME280;9763;48.780;9.212;2023-02-19T09:35:02;99118.34;;;13.83;56.60
19259;BME280;9763;48.780;9.212;2023-02-19T09:38:26;99131.28;;;13.86;56.68
19259;BME280;9763;48.780;9.212;2023-02-19T09:41:55;99134.13;;;13.96;57.20
19259;BME280;9763;48.780;9.212;2023-02-19T09:45:22;99135.25;;;14.04;56.29
19259;BME280;9763;48.780;9.212;2023-02-19T09:48:47;99136.84;;;14.07;56.13
19259;BME280;9763;48.780;9.212;2023-02-19T09:52:16;99149.88;;;14.09;55.65
19259;BME280;9763;48.780;9.212;2023-02-19T09:55:43;99159.94;;;14.15;55.85
19259;BME280;9763;48.780;9.212;2023-02-19T09:59:15;99155.34;;;14.18;55.84
19259;BME280;9763;48.780;9.212;2023-02-19T10:02:42;99148.63;;;14.27;55.78
19259;BME280;9763;48.780;9.212;2023-02-19T10:06:10;99148.66;;;14.39;55.42
19259;BME280;9763;48.780;9.212;2023-02-19T10:09:37;99141.59;;;14.53;55.35
19259;BME280;9763;48.780;9.212;2023-02-19T10:13:14;99143.19;;;14.68;54.38
19259;BME280;9763;48.780;9.212;2023-02-19T10:16:44;99140.63;;;14.79;54.18
19259;BME280;9763;48.780;9.212;2023-02-19T10:20:12;99140.91;;;14.87;54.52
19259;BME280;9763;48.780;9.212;2023-02-19T10:23:39;99144.25;;;15.02;54.05
19259;BME280;9763;48.780;9.212;2023-02-19T10:27:04;99141.28;;;15.19;54.29
19259;BME280;9763;48.780;9.212;2023-02-19T10:30:31;99150.38;;;15.26;53.87
19259;BME280;9763;48.780;9.212;2023-02-19T10:33:59;99157.31;;;15.27;53.81
19259;BME280;9763;48.780;9.212;2023-02-19T10:37:24;99164.91;;;15.32;53.45
19259;BME280;9763;48.780;9.212;2023-02-19T10:40:51;99159.78;;;15.18;53.53
19259;BME280;9763;48.780;9.212;2023-02-19T10:44:24;99175.16;;;15.35;53.27
19259;BME280;9763;48.780;9.212;2023-02-19T10:47:49;99180.44;;;15.35;52.78
19259;BME280;9763;48.780;9.212;2023-02-19T10:51:15;99184.53;;;15.39;53.21
19259;BME280;9763;48.780;9.212;2023-02-19T10:54:43;99179.16;;;15.40;53.23
19259;BME280;9763;48.780;9.212;2023-02-19T10:58:24;99188.06;;;15.50;52.44
19259;BME280;9763;48.780;9.212;2023-02-19T11:01:56;99184.47;;;15.64;52.37
19259;BME280;9763;48.780;9.212;2023-02-19T11:05:20;99160.09;;;15.73;52.46
19259;BME280;9763;48.780;9.212;2023-02-19T11:08:58;99154.34;;;16.03;51.61
19259;BME280;9763;48.780;9.212;2023-02-19T11:12:25;99165.25;;;16.10;51.94
19259;BME280;9763;48.780;9.212;2023-02-19T11:15:51;99161.66;;;16.11;51.66
19259;BME280;9763;48.780;9.212;2023-02-19T11:19:34;99165.25;;;16.10;51.37
19259;BME280;9763;48.780;9.212;2023-02-19T11:23:03;99181.53;;;16.04;51.06
19259;BME280;9763;48.780;9.212;2023-02-19T11:26:35;99174.19;;;15.96;51.46
19259;BME280;9763;48.780;9.212;2023-02-19T11:30:27;99192.47;;;15.87;50.24
19259;BME280;9763;48.780;9.212;2023-02-19T11:34:01;99178.53;;;15.73;50.21
19259;BME280;9763;48.780;9.212;2023-02-19T11:37:25;99167.22;;;15.60;50.41
19259;BME280;9763;48.780;9.212;2023-02-19T11:40:58;99154.59;;;15.53;50.35
19259;BME280;9763;48.780;9.212;2023-02-19T11:44:39;99171.53;;;15.48;50.37
19259;BME280;9763;48.780;9.212;2023-02-19T11:48:22;99181.97;;;15.50;51.10
19259;BME280;9763;48.780;9.212;2023-02-19T11:52:05;99201.66;;;15.57;50.91
19259;BME280;9763;48.780;9.212;2023-02-19T11:55:41;99191.72;;;15.61;50.71
19259;BME280;9763;48.780;9.212;2023-02-19T11:59:17;99201.09;;;15.65;51.03
19259;BME280;9763;48.780;9.212;2023-02-19T12:03:16;99200.63;;;15.71;50.93
19259;BME280;9763;48.780;9.212;2023-02-19T12:06:51;99208.41;;;15.72;51.06
19259;BME280;9763;48.780;9.212;2023-02-19T12:10:23;99198.34;;;15.66;50.64
19259;BME280;9763;48.780;9.212;2023-02-19T12:14:01;99199.53;;;15.62;50.42
19259;BME280;9763;48.780;9.212;2023-02-19T12:18:07;99188.69;;;15.54;50.84
19259;BME280;9763;48.780;9.212;2023-02-19T12:21:48;99197.09;;;15.59;50.18
19259;BME280;9763;48.780;9.212;2023-02-19T12:25:41;99169.44;;;15.54;50.15
19259;BME280;9763;48.780;9.212;2023-02-19T12:29:19;99164.91;;;15.79;49.51
19259;BME280;9763;48.780;9.212;2023-02-19T12:33:05;99162.59;;;15.99;48.72
19259;BME280;9763;48.780;9.212;2023-02-19T12:36:42;99185.59;;;16.08;49.25
19259;BME280;9763;48.780;9.212;2023-02-19T12:40:32;99169.41;;;16.01;49.70
19259;BME280;9763;48.780;9.212;2023-02-19T12:44:07;99170.44;;;15.88;49.79
19259;BME280;9763;48.780;9.212;2023-02-19T12:47:37;99179.31;;;15.98;49.36
19259;BME280;9763;48.780;9.212;2023-02-19T12:51:07;99172.59;;;16.17;49.75
19259;BME280;9763;48.780;9.212;2023-02-19T12:54:39;99161.59;;;16.35;49.20
19259;BME280;9763;48.780;9.212;2023-02-19T12:58:08;99162.94;;;16.40;49.31
19259;BME280;9763;48.780;9.212;2023-02-19T13:01:38;99174.78;;;16.46;49.09
19259;BME280;9763;48.780;9.212;2023-02-19T13:05:18;99174.66;;;16.47;48.79
19259;BME280;9763;48.780;9.212;2023-02-19T13:08:47;99176.94;;;16.41;48.84
19259;BME280;9763;48.780;9.212;2023-02-19T13:12:32;99174.50;;;16.27;49.50
19259;BME280;9763;48.780;9.212;2023-02-19T13:16:01;99173.88;;;16.12;49.27
19259;BME280;9763;48.780;9.212;2023-02-19T13:19:26;99178.59;;;15.96;49.02
19259;BME280;9763;48.780;9.212;2023-02-19T13:22:57;99162.78;;;15.84;48.94
19259;BME280;9763;48.780;9.212;2023-02-19T13:27:02;99162.41;;;15.78;49.47
19259;BME280;9763;48.780;9.212;2023-02-19T13:30:47;99165.13;;;15.76;49.16
19259;BME280;9763;48.780;9.212;2023-02-19T13:34:31;99165.56;;;15.70;48.67
19259;BME280;9763;48.780;9.212;2023-02-19T13:38:01;99183.44;;;15.54;49.36
19259;BME280;9763;48.780;9.212;2023-02-19T13:41:32;99169.59;;;15.39;49.23
19259;BME280;9763;48.780;9.212;2023-02-19T13:44:59;99168.69;;;15.28;49.40
19259;BME280;9763;48.780;9.212;2023-02-19T13:48:27;99173.03;;;15.16;49.55
19259;BME280;9763;48.780;9.212;2023-02-19T13:51:52;99160.44;;;15.08;49.58
19259;BME280;9763;48.780;9.212;2023-02-19T13:55:49;99173.81;;;15.05;49.79
19259;BME280;9763;48.780;9.212;2023-02-19T13:59:32;99171.69;;;14.98;49.98
19259;BME280;9763;48.780;9.212;2023-02-19T14:03:29;99172.88;;;14.94;49.75
19259;BME280;9763;48.780;9.212;2023-02-19T14:07:51;99160.25;;;14.86;49.99
19259;BME280;9763;48.780;9.212;2023-02-19T14:11:16;99165.88;;;14.82;50.27
19259;BME280;9763;48.780;9.212;2023-02-19T14:14:41;99166.91;;;14.79;50.52
19259;BME280;9763;48.780;9.212;2023-02-19T14:18:42;99167.22;;;14.74;50.07
19259;BME280;9763;48.780;9.212;2023-02-19T14:26:06;99173.31;;;14.62;50.46
19259;BME280;9763;48.780;9.212;2023-02-19T14:29:30;99179.22;;;14.66;50.03
19259;BME280;9763;48.780;9.212;2023-02-19T14:32:57;99188.38;;;14.73;49.87
19259;BME280;9763;48.780;9.212;2023-02-19T14:36:41;99183.72;;;14.76;49.79
19259;BME280;9763;48.780;9.212;2023-02-19T14:40:12;99177.72;;;14.74;50.25
19259;BME280;9763;48.780;9.212;2023-02-19T14:43:41;99173.00;;;14.80;50.05
19259;BME280;9763;48.780;9.212;2023-02-19T14:47:07;99186.22;;;14.91;49.84
19259;BME280;9763;48.780;9.212;2023-02-19T14:50:32;99193.91;;;14.94;49.61
19259;BME280;9763;48.780;9.212;2023-02-19T14:54:01;99205.47;;;14.91;50.00
19259;BME280;9763;48.780;9.212;2023-02-19T14:57:34;99209.16;;;14.89;49.14
19259;BME280;9763;48.780;9.212;2023-02-19T15:01:00;99205.06;;;14.85;49.63
19259;BME280;9763;48.780;9.212;2023-02-19T15:04:26;99202.66;;;14.82;49.35
19259;BME280;9763;48.780;9.212;2023-02-19T15:07:53;99208.97;;;14.79;49.38
19259;BME280;9763;48.780;9.212;2023-02-19T15:11:21;99210.84;;;14.77;49.52
19259;BME280;9763;48.780;9.212;2023-02-19T15:14:47;99234.50;;;14.77;49.73
19259;BME280;9763;48.780;9.212;2023-02-19T15:18:17;99222.41;;;14.74;49.82
19259;BME280;9763;48.780;9.212;2023-02-19T15:21:45;99232.06;;;14.74;49.80
19259;BME280;9763;48.780;9.212;2023-02-19T15:25:15;99251.44;;;14.73;49.51
19259;BME280;9763;48.780;9.212;2023-02-19T15:28:41;99242.81;;;14.71;49.86
19259;BME280;9763;48.780;9.212;2023-02-19T15:32:16;99256.91;;;14.70;49.88
19259;BME280;9763;48.780;9.212;2023-02-19T15:35:40;99252.59;;;14.69;50.21
19259;BME280;9763;48.780;9.212;2023-02-19T15:39:04;99242.28;;;14.66;49.68
19259;BME280;9763;48.780;9.212;2023-02-19T15:42:29;99250.59;;;14.60;50.19
19259;BME280;9763;48.780;9.212;2023-02-19T15:45:58;99250.16;;;14.53;50.24
19259;BME280;9763;48.780;9.212;2023-02-19T15:49:27;99257.53;;;14.48;50.31
19259;BME280;9763;48.780;9.212;2023-02-19T15:52:57;99255.28;;;14.42;49.91
19259;BME280;9763;48.780;9.212;2023-02-19T15:56:27;99243.69;;;14.32;50.13
19259;BME280;9763;48.780;9.212;2023-02-19T15:59:56;99245.38;;;14.33;50.76
19259;BME280;9763;48.780;9.212;2023-02-19T16:03:35;99248.09;;;14.31;50.19
19259;BME280;9763;48.780;9.212;2023-02-19T16:07:01;99257.22;;;14.26;50.94
19259;BME280;9763;48.780;9.212;2023-02-19T16:10:25;99249.56;;;14.23;50.34
19259;BME280;9763;48.780;9.212;2023-02-19T16:13:55;99262.03;;;14.19;51.05
19259;BME280;9763;48.780;9.212;2023-02-19T16:17:36;99259.00;;;14.13;50.75
19259;BME280;9763;48.780;9.212;2023-02-19T16:21:08;99249.63;;;14.09;50.71
19259;BME280;9763;48.780;9.212;2023-02-19T16:24:36;99260.41;;;14.04;50.85
19259;BME280;9763;48.780;9.212;2023-02-19T16:28:10;99270.59;;;13.96;51.08
19259;BME280;9763;48.780;9.212;2023-02-19T16:31:35;99275.19;;;13.92;51.75
19259;BME280;9763;48.780;9.212;2023-02-19T16:34:59;99265.94;;;13.87;51.33
19259;BME280;9763;48.780;9.212;2023-02-19T16:38:24;99259.19;;;13.83;51.84
19259;BME280;9763;48.780;9.212;2023-02-19T16:42:16;99262.94;;;13.79;51.77
19259;BME280;9763;48.780;9.212;2023-02-19T16:45:41;99265.78;;;13.76;51.50
19259;BME280;9763;48.780;9.212;2023-02-19T16:49:07;99249.41;;;13.72;51.96
19259;BME280;9763;48.780;9.212;2023-02-19T16:52:31;99255.59;;;13.71;52.02
19259;BME280;9763;48.780;9.212;2023-02-19T16:55:56;99260.06;;;13.69;51.55
19259;BME280;9763;48.780;9.212;2023-02-19T16:59:21;99263.81;;;13.65;51.58
19259;BME280;9763;48.780;9.212;2023-02-19T17:02:46;99263.19;;;13.61;52.13
19259;BME280;9763;48.780;9.212;2023-02-19T17:06:11;99266.84;;;13.59;51.91
19259;BME280;9763;48.780;9.212;2023-02-19T17:09:34;99262.09;;;13.51;52.15
19259;BME280;9763;48.780;9.212;2023-02-19T17:12:59;99277.84;;;13.51;52.08
19259;BME280;9763;48.780;9.212;2023-02-19T17:16:26;99269.69;;;13.42;52.71
19259;BME280;9763;48.780;9.212;2023-02-19T17:19:51;99285.16;;;13.46;52.53
19259;BME280;9763;48.780;9.212;2023-02-19T17:23:14;99290.03;;;13.38;52.55
19259;BME280;9763;48.780;9.212;2023-02-19T17:26:38;99296.13;;;13.39;52.68
19259;BME280;9763;48.780;9.212;2023-02-19T17:30:11;99304.19;;;13.36;52.68
19259;BME280;9763;48.780;9.212;2023-02-19T17:33:35;99307.81;;;13.33;53.13
19259;BME280;9763;48.780;9.212;2023-02-19T17:36:59;99309.69;;;13.31;52.86
19259;BME280;9763;48.780;9.212;2023-02-19T17:40:28;99313.25;;;13.30;52.88
19259;BME280;9763;48.780;9.212;2023-02-19T17:43:55;99323.72;;;13.30;53.36
19259;BME280;9763;48.780;9.212;2023-02-19T17:47:21;99328.13;;;13.29;52.92
19259;BME280;9763;48.780;9.212;2023-02-19T17:50:45;99341.25;;;13.29;52.70
19259;BME280;9763;48.780;9.212;2023-02-19T17:54:10;99335.91;;;13.31;52.94
19259;BME280;9763;48.780;9.212;2023-02-19T17:57:34;99342.94;;;13.30;53.11
19259;BME280;9763;48.780;9.212;2023-02-19T18:00:58;99354.34;;;13.29;53.16
19259;BME280;9763;48.780;9.212;2023-02-19T18:04:23;99367.59;;;13.28;53.36
19259;BME280;9763;48.780;9.212;2023-02-19T18:07:47;99372.91;;;13.26;53.45
19259;BME280;9763;48.780;9.212;2023-02-19T18:11:11;99367.28;;;13.18;53.19
19259;BME280;9763;48.780;9.212;2023-02-19T18:14:35;99383.41;;;13.26;53.20
19259;BME280;9763;48.780;9.212;2023-02-19T18:17:59;99385.19;;;13.26;53.51
19259;BME280;9763;48.780;9.212;2023-02-19T18:21:25;99390.50;;;13.24;53.10
19259;BME280;9763;48.780;9.212;2023-02-19T18:24:50;99393.13;;;13.24;53.35
19259;BME280;9763;48.780;9.212;2023-02-19T18:28:14;99393.97;;;13.25;53.59
19259;BME280;9763;48.780;9.212;2023-02-19T18:31:38;99403.63;;;13.24;53.44
19259;BME280;9763;48.780;9.212;2023-02-19T18:35:03;99392.38;;;13.22;53.49
19259;BME280;9763;48.780;9.212;2023-02-19T18:38:29;99394.16;;;13.22;53.37
19259;BME280;9763;48.780;9.212;2023-02-19T18:41:53;99398.56;;;13.21;53.15
19259;BME280;9763;48.780;9.212;2023-02-19T18:45:17;99400.31;;;13.21;53.62
19259;BME280;9763;48.780;9.212;2023-02-19T18:48:41;99407.25;;;13.22;53.24